Ana Sayfa
METAR-TAF:

METAR-TAF

Havaalanları :

Emporia-Greensville Regional Airport

Emporia, Virginia, Amerika Birleşik Devletleri

Enlem: 36-41-13N, Boylam: 077-28-58W, yükseklik: 39 m

Güncel hava durumu gözlemi

Rapor saat 17:15 UTC de 24 dakika önce yapıldı.
Rüzgar kuzeydan 6 kt
Sıcaklık 7°C
Nem 33%
Basınç 1024 hPa
Görüş mesafesi: 16.1 km
6000 ft yükseklikte çok bulutlu

METAR: KEMV 071715Z AUTO 01006KT 10SM OVC060 07/M08 A3023 RMK AO2 T00741080

Saat: 12:39 (17:39 UTC)


TAF: eksik

4.000'den fazla havaalanı için hava durumu gözlemleri ve tahminleri (METAR ve TAF raporları).

Kullanılabilir istasyonlar harita üzerinde sarı ve kırmızı noktalarla gösterilir.

İstasyonun adını görmek için fareyi noktanın üzerinde gezdirin.

Sonrasında hava gözlem ve tahminlerini görmek için tıklayın.

Haritayı değiştirmek için: yaklaştırmak için siyah artı işaretli yeşil düğmeye ve uzaklaştırmak için de eksi işaretli düğmeye hızla tıklayın; bitişik haritalar için yeşil okları kullanın.


METAR-TAF: